createdAt,value
2022-09-13T00:01:21.982Z,16.04
2022-09-13T00:03:50.365Z,16.07
2022-09-13T00:06:21.484Z,16.04
2022-09-13T00:08:50.813Z,15.92
2022-09-13T00:11:21.273Z,15.87
2022-09-13T00:13:49.623Z,15.85
2022-09-13T00:16:21.375Z,15.85
2022-09-13T00:18:52.120Z,15.89
2022-09-13T00:21:22.423Z,15.81
2022-09-13T00:23:53.937Z,15.78
2022-09-13T00:26:23.887Z,15.76
2022-09-13T00:28:54.382Z,15.67
2022-09-13T00:31:24.912Z,15.70
2022-09-13T00:33:54.975Z,15.67
2022-09-13T00:36:23.315Z,15.57
2022-09-13T00:38:51.569Z,15.56
2022-09-13T00:41:21.921Z,15.60
2022-09-13T00:43:53.786Z,15.66
2022-09-13T00:46:29.251Z,15.63
2022-09-13T00:49:02.826Z,15.56
2022-09-13T00:51:32.952Z,15.55
2022-09-13T00:54:03.324Z,15.44
2022-09-13T00:56:35.490Z,15.44
2022-09-13T00:59:08.741Z,15.43
2022-09-13T01:01:43.719Z,15.39
2022-09-13T01:04:13.958Z,15.28
2022-09-13T01:06:43.671Z,15.29
2022-09-13T01:09:13.581Z,15.22
2022-09-13T01:11:49.418Z,15.20
2022-09-13T01:14:20.371Z,15.14
2022-09-13T01:16:49.395Z,15.17
2022-09-13T01:19:19.659Z,15.23
2022-09-13T01:22:32.635Z,15.18
2022-09-13T01:25:28.647Z,15.17
2022-09-13T01:28:21.782Z,15.18
2022-09-13T01:31:00.012Z,15.12
2022-09-13T01:33:43.938Z,15.09
2022-09-13T01:36:38.920Z,15.07
2022-09-13T01:39:12.210Z,15.04
2022-09-13T01:42:03.226Z,15.04
2022-09-13T01:44:46.149Z,14.99
2022-09-13T01:47:26.325Z,14.96
2022-09-13T01:50:08.813Z,14.90
2022-09-13T01:52:45.501Z,14.83
2022-09-13T01:55:23.991Z,14.82
2022-09-13T01:57:58.372Z,14.81
2022-09-13T02:00:29.225Z,14.66
2022-09-13T02:03:06.593Z,14.75
2022-09-13T02:05:42.091Z,14.75
2022-09-13T02:08:14.851Z,14.68
2022-09-13T02:10:48.201Z,14.58
2022-09-13T02:13:21.418Z,14.59
2022-09-13T02:15:55.951Z,14.61
2022-09-13T02:18:29.675Z,14.67
2022-09-13T02:21:02.563Z,14.67
2022-09-13T02:23:38.762Z,14.67
2022-09-13T02:26:08.919Z,14.59
2022-09-13T02:28:42.525Z,14.64
2022-09-13T02:31:15.077Z,14.63
2022-09-13T02:33:50.171Z,14.58
2022-09-13T02:36:23.928Z,14.54
2022-09-13T02:38:56.386Z,14.54
2022-09-13T02:41:31.828Z,14.53
2022-09-13T02:44:06.605Z,14.42
2022-09-13T02:46:53.419Z,14.41
2022-09-13T02:49:31.662Z,14.39
2022-09-13T02:52:11.203Z,14.47
2022-09-13T02:54:44.827Z,14.51
2022-09-13T02:57:19.547Z,14.48
2022-09-13T02:59:49.307Z,14.40
2022-09-13T03:02:23.059Z,14.34
2022-09-13T03:04:52.998Z,14.30
2022-09-13T03:07:21.820Z,14.33
2022-09-13T03:09:54.325Z,14.35
2022-09-13T03:12:40.919Z,14.30
2022-09-13T03:15:21.011Z,14.25
2022-09-13T03:18:01.928Z,14.25
2022-09-13T03:20:42.691Z,14.24
2022-09-13T03:23:31.465Z,14.21
2022-09-13T03:26:33.521Z,14.06
2022-09-13T03:29:13.736Z,14.11
2022-09-13T03:31:52.222Z,14.16
2022-09-13T03:34:32.086Z,14.19
2022-09-13T03:37:08.703Z,14.15
2022-09-13T03:39:43.560Z,14.14
2022-09-13T03:42:17.790Z,14.14
2022-09-13T03:44:50.968Z,13.98
2022-09-13T03:47:21.002Z,13.95
2022-09-13T03:49:53.023Z,13.95
2022-09-13T03:52:23.200Z,13.92
2022-09-13T03:54:53.218Z,13.82
2022-09-13T03:57:23.262Z,13.72
2022-09-13T03:59:53.818Z,13.77
2022-09-13T04:02:23.991Z,13.78
2022-09-13T04:04:52.786Z,13.69
2022-09-13T04:07:23.904Z,13.60
2022-09-13T04:09:52.971Z,13.52
2022-09-13T04:12:21.579Z,13.52
2022-09-13T04:14:49.873Z,13.58
2022-09-13T04:17:18.765Z,13.61
2022-09-13T04:19:47.572Z,13.65
2022-09-13T04:22:17.293Z,13.63
2022-09-13T04:24:46.995Z,13.66
2022-09-13T04:27:16.016Z,13.63
2022-09-13T04:29:44.281Z,13.66
2022-09-13T04:32:13.381Z,13.66
2022-09-13T04:34:41.659Z,13.68
2022-09-13T04:37:10.762Z,13.67
2022-09-13T04:39:39.442Z,13.68
2022-09-13T04:42:11.263Z,13.70
2022-09-13T04:44:40.145Z,13.62
2022-09-13T04:47:09.122Z,13.55
2022-09-13T04:49:37.754Z,13.56
2022-09-13T04:52:07.351Z,13.55
2022-09-13T04:54:35.620Z,13.58
2022-09-13T04:57:04.608Z,13.63
2022-09-13T04:59:35.024Z,13.62
2022-09-13T05:02:03.758Z,13.65
2022-09-13T05:04:32.085Z,13.64
2022-09-13T05:07:00.463Z,13.61
2022-09-13T05:09:29.578Z,13.62
2022-09-13T05:11:58.383Z,13.61
2022-09-13T05:14:27.135Z,13.59
2022-09-13T05:16:56.797Z,13.64
2022-09-13T05:19:25.539Z,13.62
2022-09-13T05:21:53.821Z,13.60
2022-09-13T05:24:22.106Z,13.55
2022-09-13T05:26:50.767Z,13.35
2022-09-13T05:29:19.049Z,13.55
2022-09-13T05:31:48.082Z,13.59
2022-09-13T05:34:19.540Z,13.63
2022-09-13T05:36:54.265Z,13.63
2022-09-13T05:40:00.412Z,13.66
2022-09-13T05:42:12.255Z,13.67
2022-09-13T05:44:40.781Z,13.64
2022-09-13T05:47:09.588Z,13.63
2022-09-13T05:49:56.718Z,13.65
2022-09-13T05:52:28.230Z,13.70
2022-09-13T05:54:57.230Z,13.69
2022-09-13T05:57:25.501Z,13.67
2022-09-13T05:59:54.163Z,13.63
2022-09-13T06:02:22.926Z,13.58
2022-09-13T06:04:52.979Z,13.64
2022-09-13T06:07:21.299Z,13.69
2022-09-13T06:09:49.639Z,13.73
2022-09-13T06:12:18.729Z,13.77
2022-09-13T06:14:47.563Z,13.86
2022-09-13T06:17:16.481Z,13.95
2022-09-13T06:19:45.079Z,14.03
2022-09-13T06:22:14.772Z,14.03
2022-09-13T06:24:43.953Z,13.97
2022-09-13T06:27:12.407Z,14.02
2022-09-13T06:29:40.717Z,14.07
2022-09-13T06:32:09.051Z,14.18
2022-09-13T06:34:37.733Z,14.28
2022-09-13T06:37:06.130Z,14.35
2022-09-13T06:39:35.886Z,14.39
2022-09-13T06:42:04.494Z,14.34
2022-09-13T06:44:41.092Z,14.44
2022-09-13T06:47:09.816Z,14.53
2022-09-13T06:49:38.275Z,14.58
2022-09-13T06:52:07.383Z,14.65
2022-09-13T06:54:37.106Z,14.74
2022-09-13T06:57:05.644Z,14.77
2022-09-13T06:59:35.043Z,14.82
2022-09-13T07:02:03.407Z,14.91
2022-09-13T07:04:32.031Z,14.99
2022-09-13T07:07:01.655Z,15.03
2022-09-13T07:09:30.920Z,15.11
2022-09-13T07:12:01.320Z,15.19
2022-09-13T07:14:30.554Z,15.28
2022-09-13T07:16:59.243Z,15.32
2022-09-13T07:19:29.835Z,15.40
2022-09-13T07:21:58.942Z,15.49
2022-09-13T07:24:28.050Z,15.58
2022-09-13T07:26:56.346Z,15.71
2022-09-13T07:29:26.485Z,15.83
2022-09-13T07:31:56.681Z,15.96
2022-09-13T07:34:26.358Z,16.12
2022-09-13T07:36:55.715Z,16.25
2022-09-13T07:39:24.292Z,16.39
2022-09-13T07:41:54.353Z,16.49
2022-09-13T07:44:22.819Z,16.68
2022-09-13T07:46:53.223Z,16.83
2022-09-13T07:49:21.551Z,17.00
2022-09-13T07:51:51.747Z,17.17
2022-09-13T07:54:21.229Z,17.39
2022-09-13T07:56:51.635Z,17.62
2022-09-13T07:59:20.674Z,17.77
2022-09-13T08:01:51.280Z,17.90
2022-09-13T08:04:25.650Z,18.05
2022-09-13T08:06:54.207Z,18.16
2022-09-13T08:09:23.050Z,18.26
2022-09-13T08:11:53.225Z,18.36
2022-09-13T08:14:23.704Z,18.42
2022-09-13T08:16:55.567Z,18.51
2022-09-13T08:19:25.384Z,18.57
2022-09-13T08:21:53.865Z,18.60
2022-09-13T08:24:22.868Z,18.67
2022-09-13T08:26:52.118Z,18.73
2022-09-13T08:29:21.222Z,18.80
2022-09-13T08:31:50.041Z,18.88
2022-09-13T08:34:20.054Z,18.99
2022-09-13T08:36:50.097Z,19.04
2022-09-13T08:39:18.469Z,19.20
2022-09-13T08:42:02.209Z,19.32
2022-09-13T08:44:33.737Z,19.44
2022-09-13T08:47:13.784Z,19.63
2022-09-13T08:49:46.589Z,19.82
2022-09-13T08:52:29.754Z,20.07
2022-09-13T08:54:59.305Z,20.39
2022-09-13T08:57:37.345Z,20.70
2022-09-13T09:00:20.968Z,20.99
2022-09-13T09:03:02.551Z,21.21
2022-09-13T09:05:33.742Z,21.42
2022-09-13T09:08:07.362Z,21.65
2022-09-13T09:10:42.189Z,21.97
2022-09-13T09:13:22.632Z,22.21
2022-09-13T09:15:56.112Z,22.31
2022-09-13T09:18:28.598Z,22.48
2022-09-13T09:21:00.011Z,22.70
2022-09-13T09:23:36.328Z,22.84
2022-09-13T09:26:16.817Z,22.97
2022-09-13T09:28:48.465Z,22.95
2022-09-13T09:31:28.982Z,23.05
2022-09-13T09:34:09.496Z,23.19
2022-09-13T09:36:43.321Z,23.46
2022-09-13T09:39:16.370Z,23.62
2022-09-13T09:41:46.080Z,23.74
2022-09-13T09:44:26.027Z,23.96
2022-09-13T09:47:00.495Z,24.00
2022-09-13T09:49:57.189Z,24.09
2022-09-13T09:52:31.146Z,24.31
2022-09-13T09:55:15.461Z,24.34
2022-09-13T09:57:56.096Z,24.54
2022-09-13T10:00:27.641Z,24.57
2022-09-13T10:02:59.636Z,24.69
2022-09-13T10:05:28.914Z,24.93
2022-09-13T10:08:02.938Z,25.16
2022-09-13T10:10:38.250Z,25.54
2022-09-13T10:13:14.727Z,25.72
2022-09-13T10:15:54.267Z,25.73
2022-09-13T10:18:43.492Z,26.01
2022-09-13T10:21:24.398Z,26.39
2022-09-13T10:23:53.691Z,26.69
2022-09-13T10:26:25.462Z,26.61
2022-09-13T10:29:01.407Z,26.69
2022-09-13T10:31:34.960Z,26.84
2022-09-13T10:34:06.113Z,26.87
2022-09-13T10:36:53.512Z,26.85
2022-09-13T10:39:24.141Z,26.80
2022-09-13T10:41:57.870Z,26.83
2022-09-13T10:44:31.709Z,27.14
2022-09-13T10:47:04.009Z,27.43
2022-09-13T10:49:48.379Z,27.64
2022-09-13T10:52:35.614Z,27.67
2022-09-13T10:55:29.038Z,27.73
2022-09-13T10:58:15.553Z,27.77
2022-09-13T11:00:56.013Z,27.78
2022-09-13T11:03:34.963Z,27.68
2022-09-13T11:06:13.328Z,27.47
2022-09-13T11:08:56.427Z,27.32
2022-09-13T11:11:33.247Z,27.04
2022-09-13T11:14:17.201Z,26.78
2022-09-13T11:16:55.614Z,26.67
2022-09-13T11:19:57.176Z,26.59
2022-09-13T11:22:39.528Z,26.45
2022-09-13T11:25:23.123Z,26.30
2022-09-13T11:28:02.271Z,26.16
2022-09-13T11:30:37.014Z,26.04
2022-09-13T11:33:23.011Z,25.93
2022-09-13T11:36:05.481Z,25.88
2022-09-13T11:38:42.454Z,25.81
2022-09-13T11:41:28.823Z,25.78
2022-09-13T11:44:17.237Z,25.70
2022-09-13T11:46:55.217Z,25.61
2022-09-13T11:49:52.946Z,25.56
2022-09-13T11:52:34.483Z,25.47
2022-09-13T11:55:14.242Z,25.41
2022-09-13T11:57:48.843Z,25.32
2022-09-13T12:00:23.130Z,25.29
2022-09-13T12:03:01.663Z,25.26
2022-09-13T12:05:34.871Z,25.20
2022-09-13T12:08:11.906Z,25.17
2022-09-13T12:10:50.177Z,25.12
2022-09-13T12:13:23.737Z,25.08
2022-09-13T12:15:55.862Z,24.99
2022-09-13T12:18:30.195Z,24.95
2022-09-13T12:21:07.344Z,24.99
2022-09-13T12:23:39.111Z,24.98
2022-09-13T12:26:14.262Z,25.01
2022-09-13T12:28:47.873Z,25.04
2022-09-13T12:31:19.885Z,25.08
2022-09-13T12:33:50.551Z,25.07
2022-09-13T12:36:34.047Z,25.10
2022-09-13T12:39:32.230Z,25.04
2022-09-13T12:42:38.357Z,24.87
2022-09-13T12:45:23.620Z,24.79
2022-09-13T12:48:11.907Z,24.71
2022-09-13T12:50:50.716Z,24.62
2022-09-13T12:53:45.482Z,24.65
2022-09-13T12:56:34.133Z,24.54
2022-09-13T12:59:17.325Z,24.54
2022-09-13T13:01:48.393Z,24.48
2022-09-13T13:04:21.399Z,24.55
2022-09-13T13:06:55.182Z,24.66
2022-09-13T13:09:29.514Z,24.73
2022-09-13T13:11:59.737Z,24.98
2022-09-13T13:14:46.629Z,25.30
2022-09-13T13:17:44.646Z,25.52
2022-09-13T13:20:42.442Z,25.74
2022-09-13T13:23:27.695Z,26.03
2022-09-13T13:26:00.849Z,26.17
2022-09-13T13:28:53.281Z,26.35
2022-09-13T13:31:37.316Z,26.45
2022-09-13T13:34:28.367Z,26.67
2022-09-13T13:37:02.041Z,26.80
2022-09-13T13:39:37.635Z,26.83
2022-09-13T13:42:20.530Z,26.83
2022-09-13T13:45:07.999Z,26.82
2022-09-13T13:47:55.983Z,26.80
2022-09-13T13:50:24.337Z,26.75
2022-09-13T13:52:56.707Z,26.82
2022-09-13T13:55:47.106Z,26.90
2022-09-13T13:58:38.875Z,27.08
2022-09-13T14:01:07.818Z,27.33
2022-09-13T14:03:53.313Z,27.56
2022-09-13T14:06:30.832Z,27.91
2022-09-13T14:09:09.562Z,28.03
2022-09-13T14:11:49.331Z,27.88
2022-09-13T14:14:33.771Z,27.70
2022-09-13T14:17:31.858Z,27.52
2022-09-13T14:20:05.037Z,27.32
2022-09-13T14:22:33.454Z,26.99
2022-09-13T14:25:16.235Z,26.87
2022-09-13T14:27:47.142Z,26.81
2022-09-13T14:30:22.010Z,26.74
2022-09-13T14:32:53.496Z,26.65
2022-09-13T14:35:31.769Z,26.63
2022-09-13T14:38:13.865Z,26.62
2022-09-13T14:40:42.231Z,26.60
2022-09-13T14:43:20.752Z,26.61
2022-09-13T14:45:53.648Z,26.59
2022-09-13T14:48:30.221Z,26.52
2022-09-13T14:51:02.203Z,26.42
2022-09-13T14:53:33.904Z,26.34
2022-09-13T14:56:07.705Z,26.24
2022-09-13T14:58:45.279Z,26.14
2022-09-13T15:01:17.151Z,26.04
2022-09-13T15:03:46.910Z,25.96
2022-09-13T15:06:25.039Z,25.91
2022-09-13T15:09:01.871Z,25.82
2022-09-13T15:11:33.602Z,25.75
2022-09-13T15:14:24.145Z,25.64
2022-09-13T15:16:59.251Z,25.52
2022-09-13T15:19:37.190Z,25.38
2022-09-13T15:22:12.194Z,25.28
2022-09-13T15:24:46.307Z,25.29
2022-09-13T15:27:27.427Z,25.26
2022-09-13T15:29:58.581Z,25.14
2022-09-13T15:32:33.638Z,25.13
2022-09-13T15:35:03.171Z,25.07
2022-09-13T15:37:36.472Z,25.01
2022-09-13T15:40:16.039Z,24.95
2022-09-13T15:42:50.233Z,24.77
2022-09-13T15:45:21.490Z,24.72
2022-09-13T15:47:52.801Z,24.59
2022-09-13T15:50:26.976Z,24.54
2022-09-13T15:52:56.264Z,24.54
2022-09-13T15:55:25.163Z,24.43
2022-09-13T15:57:53.934Z,24.34
2022-09-13T16:00:27.255Z,24.32
2022-09-13T16:02:55.866Z,24.26
2022-09-13T16:05:24.687Z,24.15
2022-09-13T16:07:54.069Z,24.02
2022-09-13T16:10:23.685Z,24.00
2022-09-13T16:12:53.292Z,24.00
2022-09-13T16:15:21.914Z,23.92
2022-09-13T16:17:52.071Z,23.85
2022-09-13T16:20:21.424Z,23.77
2022-09-13T16:22:50.360Z,23.74
2022-09-13T16:25:19.515Z,23.72
2022-09-13T16:27:48.202Z,23.71
2022-09-13T16:30:19.998Z,23.71
2022-09-13T16:32:48.306Z,23.69
2022-09-13T16:35:18.763Z,23.61
2022-09-13T16:37:51.351Z,23.55
2022-09-13T16:40:20.054Z,23.50
2022-09-13T16:42:48.872Z,23.49
2022-09-13T16:45:17.288Z,23.46
2022-09-13T16:47:46.004Z,23.30
2022-09-13T16:50:14.863Z,23.18
2022-09-13T16:52:44.834Z,23.11
2022-09-13T16:55:13.205Z,23.07
2022-09-13T16:57:41.902Z,23.06
2022-09-13T17:00:12.735Z,23.09
2022-09-13T17:02:41.141Z,23.08
2022-09-13T17:05:11.167Z,23.07
2022-09-13T17:07:40.246Z,23.06
2022-09-13T17:10:12.987Z,23.02
2022-09-13T17:12:41.622Z,22.99
2022-09-13T17:15:11.135Z,22.97
2022-09-13T17:17:39.607Z,22.93
2022-09-13T17:20:12.493Z,22.91
2022-09-13T17:22:41.732Z,22.89
2022-09-13T17:25:12.158Z,22.89
2022-09-13T17:27:40.508Z,22.86
2022-09-13T17:30:11.286Z,22.78
2022-09-13T17:32:40.098Z,22.66
2022-09-13T17:35:10.756Z,22.64
2022-09-13T17:37:39.616Z,22.66
2022-09-13T17:40:09.107Z,22.64
2022-09-13T17:42:39.054Z,22.63
2022-09-13T17:45:08.071Z,22.62
2022-09-13T17:47:36.898Z,22.62
2022-09-13T17:50:05.631Z,22.52
2022-09-13T17:52:35.178Z,22.47
2022-09-13T17:55:03.819Z,22.38
2022-09-13T17:57:33.029Z,22.41
2022-09-13T18:00:04.119Z,22.43
2022-09-13T18:02:32.798Z,22.40
2022-09-13T18:05:05.744Z,22.33
2022-09-13T18:07:35.979Z,22.26
2022-09-13T18:10:13.007Z,22.16
2022-09-13T18:12:54.421Z,22.11
2022-09-13T18:15:24.718Z,22.06
2022-09-13T18:17:53.675Z,22.02
2022-09-13T18:20:22.000Z,21.99
2022-09-13T18:22:50.728Z,21.93
2022-09-13T18:25:23.376Z,21.92
2022-09-13T18:27:53.094Z,21.87
2022-09-13T18:30:21.945Z,21.88
2022-09-13T18:32:51.632Z,21.92
2022-09-13T18:35:19.970Z,21.94
2022-09-13T18:37:48.502Z,21.94
2022-09-13T18:40:17.453Z,21.95
2022-09-13T18:42:46.284Z,21.90
2022-09-13T18:45:15.297Z,21.87
2022-09-13T18:47:43.962Z,21.86
2022-09-13T18:50:19.210Z,21.83
2022-09-13T18:52:48.434Z,21.82
2022-09-13T18:55:16.780Z,21.80
2022-09-13T18:57:45.549Z,21.77
2022-09-13T19:00:14.054Z,21.75
2022-09-13T19:03:02.069Z,21.73
2022-09-13T19:05:35.109Z,21.68
2022-09-13T19:08:07.657Z,21.60
2022-09-13T19:10:36.046Z,21.58
2022-09-13T19:13:04.773Z,21.57
2022-09-13T19:15:33.427Z,21.57
2022-09-13T19:18:01.788Z,21.58
2022-09-13T19:20:31.387Z,21.49
2022-09-13T19:23:01.534Z,21.39
2022-09-13T19:25:30.406Z,21.38
2022-09-13T19:27:59.085Z,21.38
2022-09-13T19:30:27.686Z,21.36
2022-09-13T19:32:56.089Z,21.33
2022-09-13T19:35:24.993Z,21.34
2022-09-13T19:37:53.999Z,21.32
2022-09-13T19:40:24.041Z,21.30
2022-09-13T19:42:52.386Z,21.27
2022-09-13T19:45:21.361Z,21.25
2022-09-13T19:48:36.671Z,21.19
2022-09-13T19:50:40.395Z,21.16
2022-09-13T19:53:08.702Z,21.16
2022-09-13T19:55:45.267Z,21.14
2022-09-13T19:58:14.101Z,21.10
2022-09-13T20:00:44.077Z,20.96
2022-09-13T20:03:12.407Z,20.96
2022-09-13T20:05:41.336Z,20.94
2022-09-13T20:08:09.609Z,20.90
2022-09-13T20:10:39.777Z,20.85
2022-09-13T20:13:08.111Z,20.81
2022-09-13T20:15:39.948Z,20.80
2022-09-13T20:18:13.145Z,20.77
2022-09-13T20:20:43.345Z,20.77
2022-09-13T20:23:11.809Z,20.70
2022-09-13T20:25:43.414Z,20.61
2022-09-13T20:28:12.002Z,20.53
2022-09-13T20:30:41.757Z,20.48
2022-09-13T20:33:10.356Z,20.44
2022-09-13T20:35:39.263Z,20.42
2022-09-13T20:38:07.590Z,20.38
2022-09-13T20:40:36.232Z,20.37
2022-09-13T20:43:06.178Z,20.36
2022-09-13T20:45:35.106Z,20.36
2022-09-13T20:48:03.853Z,20.34
2022-09-13T20:50:32.848Z,20.31
2022-09-13T20:53:01.976Z,20.28
2022-09-13T20:55:30.609Z,20.23
2022-09-13T20:58:00.799Z,20.22
2022-09-13T21:00:31.045Z,20.19
2022-09-13T21:02:59.749Z,20.16
2022-09-13T21:05:28.950Z,20.10
2022-09-13T21:08:14.703Z,20.08
2022-09-13T21:10:43.655Z,20.07
2022-09-13T21:13:12.110Z,20.04
2022-09-13T21:15:42.068Z,20.04
2022-09-13T21:18:10.803Z,20.03
2022-09-13T21:20:39.089Z,20.01
2022-09-13T21:23:07.727Z,19.99
2022-09-13T21:25:36.878Z,19.99
2022-09-13T21:28:05.483Z,19.93
2022-09-13T21:30:33.927Z,19.83
2022-09-13T21:33:04.341Z,19.80
2022-09-13T21:35:32.667Z,19.81
2022-09-13T21:38:01.407Z,19.78
2022-09-13T21:40:29.771Z,19.77
2022-09-13T21:42:58.881Z,19.75
2022-09-13T21:45:27.187Z,19.69
2022-09-13T21:47:56.079Z,19.65
2022-09-13T21:50:26.346Z,19.64
2022-09-13T21:52:55.239Z,19.59
2022-09-13T21:55:23.567Z,19.55
2022-09-13T21:57:52.367Z,19.56
2022-09-13T22:00:20.917Z,19.55
2022-09-13T22:02:49.760Z,19.56
2022-09-13T22:05:35.415Z,19.53
2022-09-13T22:08:05.639Z,19.51
2022-09-13T22:10:35.995Z,19.48
2022-09-13T22:13:05.069Z,19.48
2022-09-13T22:15:35.630Z,19.44
2022-09-13T22:18:04.710Z,19.47
2022-09-13T22:20:35.711Z,19.38
2022-09-13T22:23:06.090Z,19.37
2022-09-13T22:25:34.430Z,19.36
2022-09-13T22:28:03.110Z,19.36
2022-09-13T22:30:32.056Z,19.36
2022-09-13T22:33:00.771Z,19.38
2022-09-13T22:35:29.996Z,19.39
2022-09-13T22:37:59.115Z,19.35
2022-09-13T22:40:28.811Z,19.35
2022-09-13T22:42:57.729Z,19.33
2022-09-13T22:45:25.983Z,19.32
2022-09-13T22:47:54.983Z,19.33
2022-09-13T22:50:23.766Z,19.32
2022-09-13T22:52:52.270Z,19.12
2022-09-13T22:55:21.125Z,19.23
2022-09-13T22:57:53.515Z,19.17
2022-09-13T23:00:22.329Z,19.17
2022-09-13T23:02:50.583Z,19.16
2022-09-13T23:05:20.055Z,19.12
2022-09-13T23:07:48.642Z,19.10
2022-09-13T23:10:17.471Z,19.13
2022-09-13T23:12:46.507Z,19.13
2022-09-13T23:15:16.413Z,19.09
2022-09-13T23:17:45.194Z,19.01
2022-09-13T23:20:13.567Z,18.90
2022-09-13T23:22:42.141Z,18.89
2022-09-13T23:25:10.731Z,18.90
2022-09-13T23:27:40.053Z,18.94
2022-09-13T23:30:09.405Z,18.94
2022-09-13T23:32:39.346Z,18.94
2022-09-13T23:35:08.367Z,18.92
2022-09-13T23:37:37.023Z,18.93
2022-09-13T23:40:06.076Z,18.97
2022-09-13T23:42:34.836Z,18.98
2022-09-13T23:45:03.627Z,18.97
2022-09-13T23:47:31.953Z,18.93
2022-09-13T23:50:02.243Z,18.93
2022-09-13T23:52:30.642Z,18.95
2022-09-13T23:55:00.489Z,18.90
2022-09-13T23:57:30.095Z,18.85
2022-09-13T23:59:59.223Z,18.91
